Time;durP1;ratioP1;P1;durP2;ratioP2;P2;SDS_P1;SDS_P2;PMS_P1;PMS_P2;Temp;Humidity;BMP_temperature;BMP_pressure;BME280_temperature;BME280_humidity;BME280_pressure;Samples;Min_cycle;Max_cycle;Signal;HPM_P1;HPM_P2
2022/09/02 00:00:46;;;;;;;15.30;4.20;;;;;;;;;;5013261;28;20409;-67
2022/09/02 00:03:12;;;;;;;4.30;4.00;;;;;;;;;;5013859;28;20427;-67
2022/09/02 00:05:38;;;;;;;4.13;3.87;;;;;;;;;;5016963;28;20405;-68
2022/09/02 00:08:05;;;;;;;4.90;4.10;;;;;;;;;;5016826;28;20414;-68
2022/09/02 00:10:31;;;;;;;4.80;4.33;;;;;;;;;;5032414;28;20548;-65
2022/09/02 00:12:57;;;;;;;4.30;4.00;;;;;;;;;;5016576;28;20465;-66
2022/09/02 00:15:24;;;;;;;4.37;4.27;;;;;;;;;;5016762;28;20202;-65
2022/09/02 00:17:51;;;;;;;4.50;4.17;;;;;;;;;;5016579;28;20794;-65
2022/09/02 00:20:17;;;;;;;4.67;4.20;;;;;;;;;;5016662;28;20407;-64
2022/09/02 00:22:43;;;;;;;5.37;4.90;;;;;;;;;;5016509;28;20893;-65
2022/09/02 00:25:10;;;;;;;3.60;3.60;;;;;;;;;;5016621;28;20455;-65
2022/09/02 00:27:35;;;;;;;6.30;4.37;;;;;;;;;;5016517;28;20412;-65
2022/09/02 00:30:01;;;;;;;4.53;4.33;;;;;;;;;;5016404;28;20418;-65
2022/09/02 00:32:27;;;;;;;4.40;4.20;;;;;;;;;;5016470;28;20416;-65
2022/09/02 00:34:57;;;;;;;4.43;4.13;;;;;;;;;;5016344;28;20779;-65
2022/09/02 00:37:24;;;;;;;5.40;4.00;;;;;;;;;;5016404;28;20398;-65
2022/09/02 00:39:51;;;;;;;4.83;4.00;;;;;;;;;;5016286;28;21082;-65
2022/09/02 00:42:17;;;;;;;4.00;3.80;;;;;;;;;;5016268;28;20405;-65
2022/09/02 00:44:43;;;;;;;4.23;3.93;;;;;;;;;;5016197;28;20417;-65
2022/09/02 00:47:10;;;;;;;4.00;3.77;;;;;;;;;;5016038;28;20400;-67
2022/09/02 00:49:38;;;;;;;3.73;3.63;;;;;;;;;;5016058;28;20406;-65
2022/09/02 00:52:23;;;;;;;4.43;4.23;;;;;;;;;;5016024;28;20550;-65
2022/09/02 00:55:18;;;;;;;3.60;3.50;;;;;;;;;;5016262;28;20488;-65
2022/09/02 00:57:46;;;;;;;4.30;3.97;;;;;;;;;;5019631;28;20912;-65
2022/09/02 01:00:18;;;;;;;5.33;4.63;;;;;;;;;;5015857;28;20503;-65
2022/09/02 01:02:47;;;;;;;6.37;4.37;;;;;;;;;;5015831;28;20406;-65
2022/09/02 01:05:15;;;;;;;4.20;3.90;;;;;;;;;;5015742;28;20418;-65
2022/09/02 01:07:42;;;;;;;4.47;4.10;;;;;;;;;;5015757;28;20401;-65
2022/09/02 01:10:09;;;;;;;7.50;4.53;;;;;;;;;;5016041;28;20834;-65
2022/09/02 01:12:35;;;;;;;4.30;4.10;;;;;;;;;;5015669;28;20408;-65
2022/09/02 01:15:02;;;;;;;4.37;4.07;;;;;;;;;;5015213;28;20868;-65
2022/09/02 01:17:28;;;;;;;7.97;4.10;;;;;;;;;;5015604;28;20405;-65
2022/09/02 01:20:01;;;;;;;5.00;4.77;;;;;;;;;;5015422;28;20476;-65
2022/09/02 01:22:29;;;;;;;4.60;4.40;;;;;;;;;;5015550;28;20404;-64
2022/09/02 01:24:56;;;;;;;4.13;4.03;;;;;;;;;;5015443;28;20404;-65
2022/09/02 01:27:23;;;;;;;4.47;4.37;;;;;;;;;;5015405;28;20408;-65
2022/09/02 01:29:54;;;;;;;4.30;4.20;;;;;;;;;;5015388;28;20405;-65
2022/09/02 01:32:20;;;;;;;4.40;4.20;;;;;;;;;;5015368;28;20401;-65
2022/09/02 01:34:47;;;;;;;5.23;4.50;;;;;;;;;;5015252;28;20400;-65
2022/09/02 01:37:13;;;;;;;6.97;4.67;;;;;;;;;;5015182;28;20417;-65
2022/09/02 01:39:39;;;;;;;5.00;4.73;;;;;;;;;;5015196;28;20552;-65
2022/09/02 01:42:05;;;;;;;4.50;4.30;;;;;;;;;;5015114;28;20491;-66
2022/09/02 01:44:33;;;;;;;4.13;4.03;;;;;;;;;;5014971;28;20455;-65
2022/09/02 01:46:59;;;;;;;4.67;4.27;;;;;;;;;;5015061;28;20433;-65
2022/09/02 01:49:25;;;;;;;5.77;5.47;;;;;;;;;;5014986;28;20439;-66
2022/09/02 01:51:54;;;;;;;5.53;5.00;;;;;;;;;;5014897;28;20473;-64
2022/09/02 01:54:20;;;;;;;5.00;4.80;;;;;;;;;;5015130;28;20447;-65
2022/09/02 01:56:46;;;;;;;5.43;4.90;;;;;;;;;;5015104;28;20411;-65
2022/09/02 01:59:16;;;;;;;4.77;4.43;;;;;;;;;;5014689;28;20472;-65
2022/09/02 02:01:43;;;;;;;5.20;4.93;;;;;;;;;;5014814;28;20395;-65
2022/09/02 02:04:09;;;;;;;6.03;5.63;;;;;;;;;;5014750;28;20498;-65
2022/09/02 02:06:35;;;;;;;7.80;4.20;;;;;;;;;;5014710;28;20432;-65
2022/09/02 02:09:01;;;;;;;5.07;4.87;;;;;;;;;;5014631;28;20442;-64
2022/09/02 02:11:27;;;;;;;5.20;5.00;;;;;;;;;;5014692;28;20399;-65
2022/09/02 02:13:53;;;;;;;5.70;5.50;;;;;;;;;;5014492;28;20917;-65
2022/09/02 02:16:19;;;;;;;5.77;5.27;;;;;;;;;;5014495;28;20503;-66
2022/09/02 02:18:45;;;;;;;5.90;5.50;;;;;;;;;;5014411;28;20455;-66
2022/09/02 02:21:11;;;;;;;5.70;5.33;;;;;;;;;;5014440;28;20412;-64
2022/09/02 02:23:37;;;;;;;5.43;5.20;;;;;;;;;;5014441;28;20751;-64
2022/09/02 02:26:03;;;;;;;5.17;4.87;;;;;;;;;;5013580;28;20410;-65
2022/09/02 02:28:29;;;;;;;5.63;5.27;;;;;;;;;;5014345;28;20403;-65
2022/09/02 02:30:55;;;;;;;6.03;5.53;;;;;;;;;;5014216;28;20408;-65
2022/09/02 02:33:22;;;;;;;5.70;5.40;;;;;;;;;;5014242;28;20885;-65
2022/09/02 02:35:48;;;;;;;7.13;5.37;;;;;;;;;;5014416;28;20400;-66
2022/09/02 02:38:14;;;;;;;4.83;4.67;;;;;;;;;;5014363;28;20825;-65
2022/09/02 02:40:40;;;;;;;5.23;5.03;;;;;;;;;;5014110;28;20408;-65
2022/09/02 02:43:06;;;;;;;6.07;5.33;;;;;;;;;;5014046;28;20939;-65
2022/09/02 02:45:32;;;;;;;5.93;5.63;;;;;;;;;;5014030;28;20416;-65
2022/09/02 02:47:58;;;;;;;5.83;5.07;;;;;;;;;;5014062;28;20404;-66
2022/09/02 02:50:25;;;;;;;5.80;5.50;;;;;;;;;;5013926;28;20414;-65
2022/09/02 02:52:53;;;;;;;5.43;4.93;;;;;;;;;;5013835;28;20472;-65
2022/09/02 02:55:19;;;;;;;5.13;4.90;;;;;;;;;;5013937;28;20409;-65
2022/09/02 02:57:46;;;;;;;4.97;4.80;;;;;;;;;;5013874;28;20407;-65
2022/09/02 03:00:13;;;;;;;5.77;5.27;;;;;;;;;;5013944;28;20419;-67
2022/09/02 03:02:39;;;;;;;5.60;5.20;;;;;;;;;;5013810;28;20396;-65
2022/09/02 03:05:06;;;;;;;5.63;5.40;;;;;;;;;;5013836;28;20462;-65
2022/09/02 03:07:33;;;;;;;6.00;5.40;;;;;;;;;;5013810;28;20483;-65
2022/09/02 03:09:59;;;;;;;6.20;5.80;;;;;;;;;;5013806;28;20769;-65
2022/09/02 03:12:26;;;;;;;5.93;5.43;;;;;;;;;;5013729;28;20498;-65
2022/09/02 03:14:53;;;;;;;6.13;5.80;;;;;;;;;;5013718;28;20949;-65
2022/09/02 03:17:19;;;;;;;5.60;5.20;;;;;;;;;;5013771;28;20833;-65
2022/09/02 03:19:45;;;;;;;7.23;5.50;;;;;;;;;;5013848;28;20482;-64
2022/09/02 03:22:12;;;;;;;5.33;5.03;;;;;;;;;;5013638;28;20403;-65
2022/09/02 03:24:38;;;;;;;5.90;5.50;;;;;;;;;;5013860;28;20414;-64
2022/09/02 03:27:04;;;;;;;6.03;5.63;;;;;;;;;;5013653;28;20731;-65
2022/09/02 03:29:30;;;;;;;6.63;5.03;;;;;;;;;;5013565;28;20614;-64
2022/09/02 03:31:56;;;;;;;6.20;5.77;;;;;;;;;;5013598;28;20413;-65
2022/09/02 03:34:22;;;;;;;6.47;5.97;;;;;;;;;;5013556;28;20407;-66
2022/09/02 03:36:48;;;;;;;5.80;5.13;;;;;;;;;;5013661;28;20394;-65
2022/09/02 03:39:14;;;;;;;6.30;5.90;;;;;;;;;;5017307;28;20469;-65
2022/09/02 03:41:41;;;;;;;6.90;6.50;;;;;;;;;;5017366;28;20814;-65
2022/09/02 03:44:07;;;;;;;6.70;6.10;;;;;;;;;;5017314;28;20440;-64
2022/09/02 03:46:34;;;;;;;6.83;6.23;;;;;;;;;;5017365;28;20420;-65
2022/09/02 03:49:00;;;;;;;6.93;6.43;;;;;;;;;;5017253;28;20508;-65
2022/09/02 03:51:27;;;;;;;6.63;6.10;;;;;;;;;;5017041;28;20462;-65
2022/09/02 03:53:53;;;;;;;7.40;6.87;;;;;;;;;;5017406;28;20406;-65
2022/09/02 03:56:20;;;;;;;7.10;6.37;;;;;;;;;;5017340;28;20402;-66
2022/09/02 03:58:48;;;;;;;6.50;6.10;;;;;;;;;;5017101;28;20460;-66
2022/09/02 04:01:15;;;;;;;6.37;6.00;;;;;;;;;;5017151;28;20474;-64
2022/09/02 04:03:41;;;;;;;9.43;5.77;;;;;;;;;;5016964;28;20458;-68
2022/09/02 04:06:10;;;;;;;6.37;5.83;;;;;;;;;;5016925;28;20425;-65
2022/09/02 04:08:36;;;;;;;5.90;5.60;;;;;;;;;;5017110;28;20442;-65
2022/09/02 04:11:07;;;;;;;6.50;6.10;;;;;;;;;;5016869;28;20405;-65
2022/09/02 04:13:33;;;;;;;7.13;6.43;;;;;;;;;;5016800;28;20824;-65
2022/09/02 04:15:59;;;;;;;9.47;5.77;;;;;;;;;;5016697;28;20444;-65
2022/09/02 04:21:29;;;;;;;7.73;6.30;;;;;;;;;;5016706;28;20381;-65
2022/09/02 04:23:55;;;;;;;7.83;6.97;;;;;;;;;;5016653;28;20413;-66
2022/09/02 04:26:22;;;;;;;7.43;6.93;;;;;;;;;;5016498;28;20418;-66
2022/09/02 04:28:48;;;;;;;6.87;6.27;;;;;;;;;;5016529;28;20397;-65
2022/09/02 04:31:15;;;;;;;7.20;6.50;;;;;;;;;;5016469;28;20386;-65
2022/09/02 04:33:42;;;;;;;6.80;6.17;;;;;;;;;;5016398;28;20398;-65
2022/09/02 04:36:09;;;;;;;11.37;6.67;;;;;;;;;;5016444;28;20403;-65
2022/09/02 04:38:35;;;;;;;15.93;6.83;;;;;;;;;;5016263;28;20464;-65
2022/09/02 04:41:05;;;;;;;7.50;6.90;;;;;;;;;;5016482;28;20451;-65
2022/09/02 04:43:31;;;;;;;12.53;6.83;;;;;;;;;;5016229;28;20431;-65
2022/09/02 04:45:57;;;;;;;11.27;6.93;;;;;;;;;;5016132;28;20484;-66
2022/09/02 04:48:23;;;;;;;8.13;7.27;;;;;;;;;;5015785;28;20404;-66
2022/09/02 04:50:49;;;;;;;6.60;6.00;;;;;;;;;;5015622;28;20444;-66
2022/09/02 04:53:15;;;;;;;7.50;7.10;;;;;;;;;;5015922;28;20514;-66
2022/09/02 04:55:42;;;;;;;6.80;6.20;;;;;;;;;;5015999;28;20413;-68
2022/09/02 04:58:08;;;;;;;6.83;6.43;;;;;;;;;;5015865;28;20556;-69
2022/09/02 05:00:34;;;;;;;9.03;6.60;;;;;;;;;;5016138;28;20427;-65
2022/09/02 05:03:00;;;;;;;7.40;6.70;;;;;;;;;;5015775;28;20408;-65
2022/09/02 05:05:26;;;;;;;8.00;6.73;;;;;;;;;;5015761;28;20441;-65
2022/09/02 05:07:54;;;;;;;6.83;6.47;;;;;;;;;;5015821;28;20862;-66
2022/09/02 05:10:20;;;;;;;8.90;7.13;;;;;;;;;;5016008;28;20417;-66
2022/09/02 05:12:46;;;;;;;7.67;6.97;;;;;;;;;;5015707;28;20407;-66
2022/09/02 05:15:12;;;;;;;7.20;6.70;;;;;;;;;;5015556;28;20440;-65
2022/09/02 05:17:38;;;;;;;7.80;7.27;;;;;;;;;;5015622;28;20489;-65
2022/09/02 05:20:05;;;;;;;8.87;6.40;;;;;;;;;;5015487;28;20468;-67
2022/09/02 05:22:32;;;;;;;8.17;7.17;;;;;;;;;;5015512;28;20405;-66
2022/09/02 05:24:58;;;;;;;6.73;6.00;;;;;;;;;;5015350;28;20440;-66
2022/09/02 05:27:24;;;;;;;7.57;7.13;;;;;;;;;;5015390;28;20432;-65
2022/09/02 05:29:53;;;;;;;6.70;6.30;;;;;;;;;;5015327;28;20427;-65
2022/09/02 05:32:19;;;;;;;7.07;6.53;;;;;;;;;;5015276;28;20808;-65
2022/09/02 05:34:46;;;;;;;10.63;7.47;;;;;;;;;;5015241;28;20525;-65
2022/09/02 05:37:12;;;;;;;7.50;7.10;;;;;;;;;;5015176;28;20401;-67
2022/09/02 05:39:38;;;;;;;7.87;7.30;;;;;;;;;;5015143;28;20475;-64
2022/09/02 05:42:04;;;;;;;11.50;7.30;;;;;;;;;;5015151;28;20532;-65
2022/09/02 05:44:30;;;;;;;7.33;6.90;;;;;;;;;;5015063;28;20412;-66
2022/09/02 05:46:56;;;;;;;7.97;7.37;;;;;;;;;;5015063;28;20485;-65
2022/09/02 05:49:22;;;;;;;6.97;6.37;;;;;;;;;;5015027;28;20546;-64
2022/09/02 05:51:50;;;;;;;8.47;7.57;;;;;;;;;;5014716;28;20505;-65
2022/09/02 05:54:17;;;;;;;8.93;7.40;;;;;;;;;;5015032;28;20446;-65
2022/09/02 05:56:44;;;;;;;7.80;7.20;;;;;;;;;;5014872;28;20398;-65
2022/09/02 05:59:10;;;;;;;7.57;6.80;;;;;;;;;;5014806;28;20465;-65
2022/09/02 06:01:37;;;;;;;7.93;7.37;;;;;;;;;;5015030;28;20409;-65
2022/09/02 06:04:03;;;;;;;7.53;7.07;;;;;;;;;;5014698;28;20446;-65
2022/09/02 06:06:30;;;;;;;7.70;7.20;;;;;;;;;;5014644;28;20880;-65
2022/09/02 06:08:56;;;;;;;9.13;6.57;;;;;;;;;;5014891;28;20407;-66
2022/09/02 06:11:22;;;;;;;7.20;6.60;;;;;;;;;;5014586;28;20943;-65
2022/09/02 06:13:48;;;;;;;7.80;7.03;;;;;;;;;;5014432;28;20898;-66
2022/09/02 06:16:16;;;;;;;9.63;6.60;;;;;;;;;;5014360;28;20426;-65
2022/09/02 06:18:42;;;;;;;7.20;6.50;;;;;;;;;;5014290;28;21020;-64
2022/09/02 06:21:09;;;;;;;6.60;6.20;;;;;;;;;;5014710;28;20414;-65
2022/09/02 06:23:37;;;;;;;7.43;6.73;;;;;;;;;;5014433;28;20398;-65
2022/09/02 06:26:03;;;;;;;7.13;6.70;;;;;;;;;;5014622;28;20454;-64
2022/09/02 06:28:29;;;;;;;6.80;6.50;;;;;;;;;;5014330;28;20404;-64
2022/09/02 06:30:55;;;;;;;6.00;5.60;;;;;;;;;;5014253;28;20415;-65
2022/09/02 06:33:21;;;;;;;6.20;5.90;;;;;;;;;;5014201;28;20399;-65
2022/09/02 06:35:48;;;;;;;6.70;6.40;;;;;;;;;;5014212;28;20406;-80
2022/09/02 06:38:14;;;;;;;6.90;6.27;;;;;;;;;;5014059;28;20454;-76
2022/09/02 06:40:50;;;;;;;6.53;5.30;;;;;;;;;;5014200;28;20462;-80
2022/09/02 06:43:16;;;;;;;6.27;5.97;;;;;;;;;;5014082;28;20411;-78
2022/09/02 06:45:42;;;;;;;6.30;5.90;;;;;;;;;;5014119;28;20449;-84
2022/09/02 06:48:09;;;;;;;5.97;5.53;;;;;;;;;;5014055;28;20457;-79
2022/09/02 06:50:42;;;;;;;6.97;6.53;;;;;;;;;;5014082;28;20415;-81
2022/09/02 06:53:09;;;;;;;7.10;6.50;;;;;;;;;;5013839;28;20467;-76
2022/09/02 06:55:36;;;;;;;6.57;6.13;;;;;;;;;;5013902;28;20822;-69
2022/09/02 06:58:03;;;;;;;6.27;5.97;;;;;;;;;;5013841;28;20397;-70
2022/09/02 07:00:30;;;;;;;5.77;5.37;;;;;;;;;;5013805;28;20968;-72
2022/09/02 07:05:41;;;;;;;5.07;4.97;;;;;;;;;;5014044;28;20489;-74
2022/09/02 07:08:08;;;;;;;5.77;5.27;;;;;;;;;;5013811;28;20409;-70
2022/09/02 07:10:38;;;;;;;6.30;5.80;;;;;;;;;;5013978;28;20442;-72
2022/09/02 07:13:04;;;;;;;5.73;5.43;;;;;;;;;;5013529;28;20429;-73
2022/09/02 07:15:30;;;;;;;5.03;4.93;;;;;;;;;;5013425;28;20406;-75
2022/09/02 07:17:56;;;;;;;5.80;5.50;;;;;;;;;;5013863;28;20426;-74
2022/09/02 07:20:22;;;;;;;5.60;5.20;;;;;;;;;;5013575;28;20888;-75
2022/09/02 07:22:48;;;;;;;5.97;4.67;;;;;;;;;;5013696;28;20404;-75
2022/09/02 07:25:15;;;;;;;4.97;4.70;;;;;;;;;;5013613;28;20880;-71
2022/09/02 07:27:42;;;;;;;5.63;4.97;;;;;;;;;;5013438;28;20406;-76
2022/09/02 07:30:09;;;;;;;5.00;4.70;;;;;;;;;;5013512;28;20411;-74
2022/09/02 07:32:35;;;;;;;4.67;4.37;;;;;;;;;;5013569;28;20871;-70
2022/09/02 07:35:01;;;;;;;4.43;4.13;;;;;;;;;;5013483;28;20466;-75
2022/09/02 07:37:27;;;;;;;4.37;4.07;;;;;;;;;;5013531;28;20916;-75
2022/09/02 07:39:53;;;;;;;3.77;3.67;;;;;;;;;;5013400;28;20464;-73
2022/09/02 07:42:19;;;;;;;3.60;3.40;;;;;;;;;;5013506;28;20404;-69
2022/09/02 07:44:45;;;;;;;3.67;3.47;;;;;;;;;;5013500;28;20913;-75
2022/09/02 07:47:11;;;;;;;3.40;3.30;;;;;;;;;;5013325;28;20480;-70
2022/09/02 07:49:38;;;;;;;3.20;3.03;;;;;;;;;;5013479;28;20437;-76
2022/09/02 07:52:04;;;;;;;2.60;2.50;;;;;;;;;;5013419;28;20468;-78
2022/09/02 07:54:31;;;;;;;4.20;3.07;;;;;;;;;;5013403;28;20402;-76
2022/09/02 07:56:57;;;;;;;3.23;3.13;;;;;;;;;;5013649;28;20406;-73
2022/09/02 07:59:23;;;;;;;6.17;3.50;;;;;;;;;;5013212;28;20963;-69
2022/09/02 08:01:50;;;;;;;3.20;3.00;;;;;;;;;;5013245;28;20461;-65
2022/09/02 08:04:17;;;;;;;3.20;3.10;;;;;;;;;;5013261;28;20409;-76
2022/09/02 08:06:43;;;;;;;4.60;3.30;;;;;;;;;;5013159;28;20473;-68
2022/09/02 08:09:10;;;;;;;3.83;3.50;;;;;;;;;;5013167;28;20411;-67
2022/09/02 08:11:38;;;;;;;3.40;3.30;;;;;;;;;;5013270;28;20399;-69
2022/09/02 08:14:05;;;;;;;3.40;3.30;;;;;;;;;;5013183;28;20437;-74
2022/09/02 08:16:31;;;;;;;3.20;3.07;;;;;;;;;;5013161;28;20399;-67
2022/09/02 08:18:57;;;;;;;3.53;3.33;;;;;;;;;;5013069;28;21081;-67
2022/09/02 08:21:24;;;;;;;3.33;3.23;;;;;;;;;;5013155;28;20459;-74
2022/09/02 08:23:50;;;;;;;2.80;2.70;;;;;;;;;;5013173;28;20484;-72
2022/09/02 08:26:17;;;;;;;3.60;3.50;;;;;;;;;;5016684;28;21078;-76
2022/09/02 08:28:43;;;;;;;3.50;3.40;;;;;;;;;;5016412;28;20792;-70
2022/09/02 08:31:09;;;;;;;3.27;3.17;;;;;;;;;;5016588;28;20409;-68
2022/09/02 08:33:35;;;;;;;3.43;3.33;;;;;;;;;;5016690;28;20421;-73
2022/09/02 08:36:05;;;;;;;3.10;3.00;;;;;;;;;;5016329;28;20487;-67
2022/09/02 08:38:31;;;;;;;3.90;3.30;;;;;;;;;;5016484;28;20473;-70
2022/09/02 08:40:57;;;;;;;4.73;3.60;;;;;;;;;;5016347;28;20416;-69
2022/09/02 08:43:24;;;;;;;3.23;3.13;;;;;;;;;;5016164;28;20955;-66
2022/09/02 08:45:52;;;;;;;3.03;2.93;;;;;;;;;;5031617;28;20926;-66
2022/09/02 08:48:20;;;;;;;2.87;2.73;;;;;;;;;;5016158;28;20487;-68
2022/09/02 08:50:47;;;;;;;4.00;3.23;;;;;;;;;;5016402;28;20464;-67
2022/09/02 08:53:26;;;;;;;2.87;2.70;;;;;;;;;;5015879;28;20468;-76
2022/09/02 08:55:54;;;;;;;3.40;3.20;;;;;;;;;;5015999;28;20414;-72
2022/09/02 08:58:22;;;;;;;2.80;2.70;;;;;;;;;;5015831;28;20455;-74
2022/09/02 09:00:59;;;;;;;3.37;3.10;;;;;;;;;;5015831;28;20984;-66
2022/09/02 09:03:30;;;;;;;3.30;3.17;;;;;;;;;;5015784;28;20493;-66
2022/09/02 09:05:56;;;;;;;2.60;2.50;;;;;;;;;;5015875;28;20422;-66
2022/09/02 09:08:22;;;;;;;3.27;3.17;;;;;;;;;;5015812;28;20402;-66
2022/09/02 09:11:09;;;;;;;3.27;2.00;;;;;;;;;;5015693;28;20407;-66
2022/09/02 09:13:35;;;;;;;2.10;2.10;;;;;;;;;;5015619;28;20386;-69
2022/09/02 09:16:14;;;;;;;2.30;2.30;;;;;;;;;;5015584;28;20767;-69
2022/09/02 09:18:44;;;;;;;2.30;2.20;;;;;;;;;;5015466;28;20459;-66
2022/09/02 09:21:10;;;;;;;2.43;2.43;;;;;;;;;;5015751;28;20447;-65
2022/09/02 09:23:38;;;;;;;2.43;2.30;;;;;;;;;;5015499;28;20396;-67
2022/09/02 09:26:09;;;;;;;2.30;2.20;;;;;;;;;;5015472;28;20521;-68
2022/09/02 09:28:43;;;;;;;2.20;2.10;;;;;;;;;;5014922;28;20392;-67
2022/09/02 09:31:11;;;;;;;2.73;2.63;;;;;;;;;;5015434;28;20792;-73
2022/09/02 09:33:37;;;;;;;2.10;2.00;;;;;;;;;;5015097;28;20415;-73
2022/09/02 09:36:04;;;;;;;2.63;2.53;;;;;;;;;;5014866;28;20551;-68
2022/09/02 09:38:31;;;;;;;2.50;2.50;;;;;;;;;;5015106;28;20546;-67
2022/09/02 09:41:11;;;;;;;3.93;3.67;;;;;;;;;;5015127;28;20898;-66
2022/09/02 09:43:37;;;;;;;4.73;2.47;;;;;;;;;;5030642;28;20831;-66
2022/09/02 09:46:19;;;;;;;2.33;2.20;;;;;;;;;;5015097;28;20412;-67
2022/09/02 09:48:50;;;;;;;2.57;2.57;;;;;;;;;;5015047;28;20408;-67
2022/09/02 09:51:16;;;;;;;2.67;2.47;;;;;;;;;;5014845;28;20457;-71
2022/09/02 09:53:43;;;;;;;2.27;2.20;;;;;;;;;;5014845;28;20407;-69
2022/09/02 09:56:15;;;;;;;3.17;2.13;;;;;;;;;;5014888;28;20439;-72
2022/09/02 09:58:41;;;;;;;1.90;1.90;;;;;;;;;;5014642;28;20822;-72
2022/09/02 10:01:33;;;;;;;1.90;1.80;;;;;;;;;;5014715;28;20491;-74
2022/09/02 10:04:06;;;;;;;3.23;1.57;;;;;;;;;;5015288;28;20513;-71
2022/09/02 10:06:32;;;;;;;1.77;1.77;;;;;;;;;;5014654;28;20393;-71
2022/09/02 10:09:03;;;;;;;2.00;1.90;;;;;;;;;;5014651;28;20895;-73
2022/09/02 10:11:33;;;;;;;2.40;1.60;;;;;;;;;;5014556;28;20402;-73
2022/09/02 10:14:00;;;;;;;3.13;1.70;;;;;;;;;;5014814;28;20489;-71
2022/09/02 10:17:04;;;;;;;1.80;1.80;;;;;;;;;;5014539;28;20390;-71
2022/09/02 10:19:36;;;;;;;1.67;1.57;;;;;;;;;;5031771;28;20475;-76
2022/09/02 10:22:21;;;;;;;1.67;1.67;;;;;;;;;;5032202;28;20405;-76
2022/09/02 10:25:06;;;;;;;8.83;2.17;;;;;;;;;;5020809;28;20801;-72
2022/09/02 10:27:51;;;;;;;1.93;1.80;;;;;;;;;;5014319;28;20400;-70
2022/09/02 10:30:21;;;;;;;1.80;1.70;;;;;;;;;;5014679;28;20861;-74
2022/09/02 10:33:05;;;;;;;1.63;1.63;;;;;;;;;;5014325;28;20494;-70
2022/09/02 10:35:34;;;;;;;3.40;1.60;;;;;;;;;;5014185;28;20410;-75
2022/09/02 10:38:10;;;;;;;2.07;1.97;;;;;;;;;;5014095;28;20403;-73
2022/09/02 10:40:43;;;;;;;2.77;1.53;;;;;;;;;;5014185;28;20419;-78
2022/09/02 10:43:23;;;;;;;1.50;1.40;;;;;;;;;;5014162;28;20446;-75
2022/09/02 10:45:53;;;;;;;1.40;1.40;;;;;;;;;;5012681;28;20402;-79
2022/09/02 10:48:25;;;;;;;1.63;1.63;;;;;;;;;;5012530;28;20442;-69
2022/09/02 10:51:15;;;;;;;1.83;1.77;;;;;;;;;;5013656;28;20417;-76
2022/09/02 10:54:00;;;;;;;1.37;1.37;;;;;;;;;;5013973;28;20451;-75
2022/09/02 10:56:33;;;;;;;1.57;1.57;;;;;;;;;;5012793;28;20393;-72
2022/09/02 10:59:04;;;;;;;2.00;1.90;;;;;;;;;;5012892;28;20472;-72
2022/09/02 11:01:37;;;;;;;1.70;1.70;;;;;;;;;;5013322;28;20500;-73
2022/09/02 11:04:03;;;;;;;2.20;2.10;;;;;;;;;;5012821;28;20422;-74
2022/09/02 11:06:29;;;;;;;1.60;1.60;;;;;;;;;;5013258;28;20494;-75
2022/09/02 11:08:58;;;;;;;5.27;1.63;;;;;;;;;;5012819;28;20408;-70
2022/09/02 11:11:29;;;;;;;1.70;1.60;;;;;;;;;;5012869;28;20400;-73
2022/09/02 11:14:10;;;;;;;4.93;1.60;;;;;;;;;;5013591;28;20463;-74
2022/09/02 11:16:44;;;;;;;2.60;1.47;;;;;;;;;;5013662;28;20405;-73
2022/09/02 11:19:29;;;;;;;1.40;1.40;;;;;;;;;;5013501;28;20456;-72
2022/09/02 11:22:01;;;;;;;1.70;1.60;;;;;;;;;;5013617;28;20395;-69
2022/09/02 11:24:29;;;;;;;3.90;1.50;;;;;;;;;;5013651;28;20397;-73
2022/09/02 11:27:05;;;;;;;2.90;1.93;;;;;;;;;;5013653;28;20397;-74
2022/09/02 11:29:35;;;;;;;1.60;1.60;;;;;;;;;;5013589;28;20401;-69
2022/09/02 11:32:04;;;;;;;1.40;1.40;;;;;;;;;;5013570;28;20800;-70
2022/09/02 11:34:33;;;;;;;1.57;1.47;;;;;;;;;;5013495;28;20401;-74
2022/09/02 11:37:04;;;;;;;3.53;1.50;;;;;;;;;;5013531;28;20803;-73
2022/09/02 11:39:33;;;;;;;3.13;1.60;;;;;;;;;;5013308;28;20463;-74
2022/09/02 11:42:11;;;;;;;1.70;1.70;;;;;;;;;;5013443;28;20400;-72
2022/09/02 11:44:40;;;;;;;1.67;1.57;;;;;;;;;;5013091;28;20858;-72
2022/09/02 11:47:25;;;;;;;3.67;1.63;;;;;;;;;;5013127;28;20408;-73
2022/09/02 11:49:57;;;;;;;1.80;1.70;;;;;;;;;;5013360;28;20400;-72
2022/09/02 11:52:45;;;;;;;2.00;1.60;;;;;;;;;;5012913;28;20445;-76
2022/09/02 11:55:23;;;;;;;1.50;1.47;;;;;;;;;;5013254;28;20839;-75
2022/09/02 11:57:53;;;;;;;1.53;1.53;;;;;;;;;;5013255;28;20856;-79
2022/09/02 12:00:29;;;;;;;1.43;1.43;;;;;;;;;;5016838;28;20476;-76
2022/09/02 12:03:11;;;;;;;1.60;1.50;;;;;;;;;;5016929;28;20388;-77
2022/09/02 12:05:39;;;;;;;1.70;1.60;;;;;;;;;;5017025;28;20389;-72
2022/09/02 12:08:26;;;;;;;2.10;1.50;;;;;;;;;;5017131;28;20401;-70
2022/09/02 12:10:52;;;;;;;2.40;1.50;;;;;;;;;;5025478;28;20425;-74
2022/09/02 12:13:36;;;;;;;1.50;1.50;;;;;;;;;;5017024;28;20420;-79
2022/09/02 12:16:28;;;;;;;1.50;1.50;;;;;;;;;;5016814;28;20224;-75
2022/09/02 12:18:56;;;;;;;1.87;1.63;;;;;;;;;;5016767;28;20468;-72
2022/09/02 12:21:22;;;;;;;1.83;1.83;;;;;;;;;;5016756;28;20441;-77
2022/09/02 12:23:48;;;;;;;5.17;1.63;;;;;;;;;;5016704;28;20460;-78
2022/09/02 12:26:16;;;;;;;1.47;1.47;;;;;;;;;;5031813;28;20880;-77
2022/09/02 12:28:45;;;;;;;1.83;1.73;;;;;;;;;;5016401;28;20472;-75
2022/09/02 12:31:31;;;;;;;2.00;1.83;;;;;;;;;;5016470;28;20420;-72
2022/09/02 12:34:01;;;;;;;1.90;1.80;;;;;;;;;;5017874;28;20429;-70
2022/09/02 12:36:37;;;;;;;1.40;1.40;;;;;;;;;;5015489;28;20397;-69
2022/09/02 12:39:21;;;;;;;3.23;2.00;;;;;;;;;;5015313;28;20456;-69
2022/09/02 12:41:50;;;;;;;1.57;1.57;;;;;;;;;;5015521;28;20409;-66
2022/09/02 12:44:16;;;;;;;1.90;1.80;;;;;;;;;;5015321;28;20528;-67
2022/09/02 12:46:42;;;;;;;3.03;1.83;;;;;;;;;;5015655;28;20424;-71
2022/09/02 12:49:28;;;;;;;1.67;1.67;;;;;;;;;;5016075;28;20174;-70
2022/09/02 12:51:55;;;;;;;1.70;1.60;;;;;;;;;;5015904;28;20943;-73
2022/09/02 12:54:26;;;;;;;1.73;1.63;;;;;;;;;;5016102;28;20499;-71
2022/09/02 12:56:52;;;;;;;1.60;1.60;;;;;;;;;;5016091;28;20397;-73
2022/09/02 12:59:27;;;;;;;1.37;1.37;;;;;;;;;;5016125;28;20476;-81
2022/09/02 13:02:03;;;;;;;1.97;1.70;;;;;;;;;;5016217;28;20880;-75
2022/09/02 13:04:32;;;;;;;1.60;1.60;;;;;;;;;;5015802;28;20959;-68
2022/09/02 13:07:17;;;;;;;2.80;1.60;;;;;;;;;;5016102;28;20877;-71
2022/09/02 13:10:01;;;;;;;1.93;1.83;;;;;;;;;;5015228;28;20868;-67
2022/09/02 13:12:39;;;;;;;1.40;1.40;;;;;;;;;;5015916;28;20439;-74
2022/09/02 13:15:08;;;;;;;1.50;1.50;;;;;;;;;;5015675;28;20416;-66
2022/09/02 13:17:45;;;;;;;1.50;1.50;;;;;;;;;;5015606;28;20880;-74
2022/09/02 13:20:22;;;;;;;1.67;1.67;;;;;;;;;;5015559;28;20579;-73
2022/09/02 13:22:50;;;;;;;1.70;1.70;;;;;;;;;;5015501;28;20417;-70
2022/09/02 13:25:25;;;;;;;1.47;1.47;;;;;;;;;;5015518;28;20488;-74
2022/09/02 13:28:12;;;;;;;2.00;1.63;;;;;;;;;;5015466;28;20420;-72
2022/09/02 13:30:47;;;;;;;1.80;1.70;;;;;;;;;;5015252;28;20495;-73
2022/09/02 13:33:13;;;;;;;1.77;1.77;;;;;;;;;;5015317;28;20400;-73
2022/09/02 13:35:40;;;;;;;1.67;1.67;;;;;;;;;;5015294;28;20393;-73
2022/09/02 13:38:09;;;;;;;1.47;1.40;;;;;;;;;;5015251;28;20487;-75
2022/09/02 13:40:36;;;;;;;1.60;1.60;;;;;;;;;;5015251;28;20834;-72
2022/09/02 13:43:11;;;;;;;4.00;1.63;;;;;;;;;;5015109;28;20407;-74
2022/09/02 13:45:37;;;;;;;1.70;1.57;;;;;;;;;;5015214;28;20409;-72
2022/09/02 13:48:08;;;;;;;3.03;1.80;;;;;;;;;;5015111;28;20500;-75
2022/09/02 13:50:34;;;;;;;2.00;1.90;;;;;;;;;;5015315;28;20409;-73
2022/09/02 13:53:01;;;;;;;6.30;1.80;;;;;;;;;;5014891;28;20456;-70
2022/09/02 13:55:28;;;;;;;2.13;1.80;;;;;;;;;;5014919;28;20405;-74
2022/09/02 13:57:58;;;;;;;1.57;1.57;;;;;;;;;;5014894;28;20397;-70
2022/09/02 14:00:30;;;;;;;1.30;1.30;;;;;;;;;;5014792;28;20472;-74
2022/09/02 14:03:01;;;;;;;2.50;1.70;;;;;;;;;;5015043;28;20409;-74
2022/09/02 14:05:28;;;;;;;5.03;1.63;;;;;;;;;;5014775;28;20419;-74
2022/09/02 14:07:56;;;;;;;1.60;1.60;;;;;;;;;;5014713;28;20459;-73
2022/09/02 14:10:25;;;;;;;1.40;1.40;;;;;;;;;;5014642;28;20400;-74
2022/09/02 14:12:52;;;;;;;2.30;1.60;;;;;;;;;;5014688;28;20918;-69
2022/09/02 14:15:23;;;;;;;1.50;1.40;;;;;;;;;;5014596;28;20393;-74
2022/09/02 14:18:18;;;;;;;1.80;1.70;;;;;;;;;;5014553;28;20401;-73
2022/09/02 14:20:58;;;;;;;1.83;1.70;;;;;;;;;;5018158;28;20449;-71
2022/09/02 14:23:25;;;;;;;1.80;1.80;;;;;;;;;;5013740;28;20427;-75
2022/09/02 14:25:57;;;;;;;1.77;1.67;;;;;;;;;;5014411;28;20854;-73
2022/09/02 14:28:24;;;;;;;1.70;1.70;;;;;;;;;;5014637;28;20483;-74
2022/09/02 14:30:55;;;;;;;3.63;1.90;;;;;;;;;;5014350;28;20453;-72
2022/09/02 14:33:36;;;;;;;1.77;1.67;;;;;;;;;;5014280;28;20408;-74
2022/09/02 14:36:04;;;;;;;1.87;1.73;;;;;;;;;;5014173;28;20811;-73
2022/09/02 14:38:33;;;;;;;1.80;1.70;;;;;;;;;;5014189;28;20893;-74
2022/09/02 14:41:19;;;;;;;1.87;1.80;;;;;;;;;;5014228;28;20417;-68
2022/09/02 14:43:47;;;;;;;1.93;1.83;;;;;;;;;;5013950;28;20478;-76
2022/09/02 14:46:22;;;;;;;1.80;1.80;;;;;;;;;;5014009;28;20504;-73
2022/09/02 14:48:52;;;;;;;1.67;1.67;;;;;;;;;;5014054;28;20898;-73
2022/09/02 14:51:18;;;;;;;2.23;2.10;;;;;;;;;;5013919;28;20750;-74
2022/09/02 14:53:44;;;;;;;1.57;1.57;;;;;;;;;;5013881;28;20425;-71
2022/09/02 14:56:10;;;;;;;1.40;1.40;;;;;;;;;;5013787;28;20432;-74
2022/09/02 14:58:36;;;;;;;1.60;1.60;;;;;;;;;;5013738;28;20448;-74
2022/09/02 15:01:03;;;;;;;1.43;1.43;;;;;;;;;;5014158;28;20460;-74